ANA97 RJTT-RJBB
Flight info
| Callsign | ANA97 |
|---|---|
| Flight time | 0h 59m |
| Altitude | 30000 |
| Route | LAXAS Y56 TOHME Y54 KOHWA Y544 DUBKA |
| Aircraft | B77W/H-SDE1E2E3FGHIJ2J3J4J5M1RWXY/LB1D1 |
Departure
| Time | 2026-05-06 17:59 |
|---|---|
| Airport | Tokyo Haneda International Airport (RJTT) |
Arrival
| Time | 2026-05-06 18:59 |
|---|---|
| Airport | Kansai International Airport (RJBB) |
| Time | Latitude | Longitude | Altitude | Speed | Heading |
|---|---|---|---|---|---|
| 2026-05-06 17:10 | 35.55269 | 139.78879 | 32 ft | 0 kts | 240° |
| 2026-05-06 17:48 | 35.55281 | 139.78905 | 32 ft | 4 kts | 240° |
| 2026-05-06 17:48 | 35.55293 | 139.78928 | 31 ft | 4 kts | 247° |
| 2026-05-06 17:48 | 35.55297 | 139.78950 | 30 ft | 4 kts | 287° |
| 2026-05-06 17:48 | 35.55287 | 139.78971 | 30 ft | 4 kts | 322° |
| 2026-05-06 17:49 | 35.55267 | 139.78988 | 30 ft | 2 kts | 330° |
| 2026-05-06 17:49 | 35.55266 | 139.78988 | 30 ft | 1 kts | 330° |
| 2026-05-06 17:53 | 35.55277 | 139.78980 | 32 ft | 7 kts | 330° |
| 2026-05-06 17:53 | 35.55331 | 139.78942 | 32 ft | 9 kts | 330° |
| 2026-05-06 17:53 | 35.55390 | 139.78941 | 32 ft | 9 kts | 31° |
| 2026-05-06 17:54 | 35.55429 | 139.79001 | 32 ft | 9 kts | 58° |
| 2026-05-06 17:54 | 35.55463 | 139.79070 | 31 ft | 10 kts | 59° |
| 2026-05-06 17:54 | 35.55501 | 139.79135 | 30 ft | 9 kts | 35° |
| 2026-05-06 17:54 | 35.55560 | 139.79131 | 31 ft | 9 kts | 332° |
| 2026-05-06 17:55 | 35.55624 | 139.79084 | 31 ft | 13 kts | 329° |
| 2026-05-06 17:55 | 35.55707 | 139.79026 | 31 ft | 14 kts | 330° |
| 2026-05-06 17:55 | 35.55793 | 139.78965 | 30 ft | 14 kts | 330° |
| 2026-05-06 17:55 | 35.55878 | 139.78905 | 28 ft | 14 kts | 330° |
| 2026-05-06 17:56 | 35.55963 | 139.78844 | 28 ft | 14 kts | 330° |
| 2026-05-06 17:56 | 35.56048 | 139.78784 | 29 ft | 14 kts | 330° |
| 2026-05-06 17:56 | 35.56132 | 139.78724 | 28 ft | 14 kts | 330° |
| 2026-05-06 17:56 | 35.56217 | 139.78665 | 29 ft | 14 kts | 330° |
| 2026-05-06 17:57 | 35.56273 | 139.78625 | 30 ft | 14 kts | 330° |
| 2026-05-06 17:57 | 35.56371 | 139.78556 | 30 ft | 6 kts | 331° |
| 2026-05-06 17:57 | 35.56421 | 139.78571 | 30 ft | 12 kts | 41° |
| 2026-05-06 17:57 | 35.56466 | 139.78648 | 33 ft | 10 kts | 59° |
| 2026-05-06 17:58 | 35.56465 | 139.78727 | 35 ft | 10 kts | 119° |
| 2026-05-06 17:58 | 35.56434 | 139.78763 | 34 ft | 9 kts | 146° |
| 2026-05-06 17:58 | 35.56381 | 139.78803 | 34 ft | 9 kts | 149° |
| 2026-05-06 17:58 | 35.56222 | 139.78915 | 31 ft | 61 kts | 150° |
| 2026-05-06 17:59 | 35.55590 | 139.79363 | 32 ft | 145 kts | 150° |
| 2026-05-06 17:59 | 35.54564 | 139.80092 | 388 ft | 178 kts | 151° |
| 2026-05-06 17:59 | 35.53479 | 139.80829 | 1348 ft | 176 kts | 153° |
| 2026-05-06 17:59 | 35.52383 | 139.81585 | 2060 ft | 191 kts | 153° |
| 2026-05-06 18:00 | 35.51254 | 139.82627 | 2425 ft | 220 kts | 136° |
| 2026-05-06 18:00 | 35.50183 | 139.84134 | 2833 ft | 246 kts | 135° |
| 2026-05-06 18:00 | 35.48996 | 139.85706 | 3619 ft | 257 kts | 137° |
| 2026-05-06 18:00 | 35.47746 | 139.87327 | 4485 ft | 266 kts | 137° |
| 2026-05-06 18:01 | 35.46488 | 139.89013 | 5365 ft | 271 kts | 130° |
| 2026-05-06 18:01 | 35.45665 | 139.91158 | 6195 ft | 286 kts | 107° |
| 2026-05-06 18:01 | 35.45475 | 139.93614 | 7132 ft | 294 kts | 89° |
| 2026-05-06 18:01 | 35.45866 | 139.96104 | 8020 ft | 302 kts | 71° |
| 2026-05-06 18:02 | 35.46467 | 139.97637 | 8585 ft | 307 kts | 57° |
| 2026-05-06 18:02 | 35.47916 | 139.99546 | 9498 ft | 308 kts | 33° |
| 2026-05-06 18:02 | 35.49849 | 140.00671 | 10353 ft | 309 kts | 12° |
| 2026-05-06 18:02 | 35.52030 | 140.00983 | 10749 ft | 328 kts | 352° |
| 2026-05-06 18:03 | 35.54270 | 140.00181 | 10965 ft | 348 kts | 327° |
| 2026-05-06 18:03 | 35.56090 | 139.98210 | 11546 ft | 355 kts | 303° |
| 2026-05-06 18:03 | 35.57211 | 139.95511 | 12500 ft | 357 kts | 285° |
| 2026-05-06 18:03 | 35.57566 | 139.92504 | 13564 ft | 360 kts | 266° |
| 2026-05-06 18:04 | 35.56884 | 139.89540 | 14545 ft | 367 kts | 242° |
| 2026-05-06 18:04 | 35.55387 | 139.87016 | 15477 ft | 368 kts | 233° |
| 2026-05-06 18:04 | 35.53810 | 139.84497 | 16380 ft | 375 kts | 234° |
| 2026-05-06 18:04 | 35.52215 | 139.81943 | 17403 ft | 378 kts | 234° |
| 2026-05-06 18:05 | 35.50602 | 139.79378 | 18427 ft | 381 kts | 233° |
| 2026-05-06 18:05 | 35.48797 | 139.77000 | 19143 ft | 387 kts | 220° |
| 2026-05-06 18:05 | 35.46458 | 139.75305 | 19962 ft | 396 kts | 207° |
| 2026-05-06 18:05 | 35.43799 | 139.74351 | 20903 ft | 404 kts | 194° |
| 2026-05-06 18:06 | 35.41004 | 139.73946 | 21838 ft | 407 kts | 192° |
| 2026-05-06 18:06 | 35.38212 | 139.73475 | 22618 ft | 403 kts | 199° |
| 2026-05-06 18:06 | 35.35643 | 139.72206 | 23349 ft | 397 kts | 216° |
| 2026-05-06 18:06 | 35.33440 | 139.70212 | 24045 ft | 393 kts | 222° |
| 2026-05-06 18:07 | 35.31282 | 139.68140 | 24654 ft | 398 kts | 221° |
| 2026-05-06 18:07 | 35.29074 | 139.66045 | 25287 ft | 402 kts | 221° |
| 2026-05-06 18:07 | 35.26851 | 139.63962 | 25933 ft | 405 kts | 221° |
| 2026-05-06 18:07 | 35.24684 | 139.61947 | 26575 ft | 408 kts | 221° |
| 2026-05-06 18:08 | 35.22464 | 139.59893 | 27360 ft | 407 kts | 221° |
| 2026-05-06 18:08 | 35.20205 | 139.57807 | 28257 ft | 404 kts | 221° |
| 2026-05-06 18:08 | 35.17968 | 139.55743 | 29146 ft | 402 kts | 221° |
| 2026-05-06 18:08 | 35.15804 | 139.53676 | 29892 ft | 399 kts | 226° |
| 2026-05-06 18:09 | 35.13944 | 139.51113 | 30080 ft | 398 kts | 239° |
| 2026-05-06 18:09 | 35.12705 | 139.48133 | 30096 ft | 393 kts | 246° |
| 2026-05-06 18:09 | 35.10372 | 139.42118 | 30088 ft | 394 kts | 245° |
| 2026-05-06 18:10 | 35.07951 | 139.36126 | 30087 ft | 393 kts | 245° |
| 2026-05-06 18:10 | 35.05534 | 139.30156 | 30081 ft | 392 kts | 245° |
| 2026-05-06 18:11 | 35.03375 | 139.24057 | 30081 ft | 392 kts | 251° |
| 2026-05-06 18:11 | 35.01982 | 139.17590 | 30094 ft | 393 kts | 258° |
| 2026-05-06 18:12 | 35.00914 | 139.11086 | 30084 ft | 394 kts | 258° |
| 2026-05-06 18:12 | 34.99818 | 139.04530 | 30075 ft | 396 kts | 258° |
| 2026-05-06 18:13 | 34.98786 | 138.97929 | 30081 ft | 397 kts | 261° |
| 2026-05-06 18:13 | 34.98384 | 138.91202 | 30089 ft | 399 kts | 265° |
| 2026-05-06 18:14 | 34.98049 | 138.84443 | 30081 ft | 400 kts | 265° |
| 2026-05-06 18:14 | 34.97698 | 138.77653 | 30093 ft | 402 kts | 265° |
| 2026-05-06 18:15 | 34.97337 | 138.70850 | 30081 ft | 403 kts | 265° |
| 2026-05-06 18:15 | 34.96970 | 138.64019 | 30085 ft | 403 kts | 265° |
| 2026-05-06 18:16 | 34.96599 | 138.57196 | 30075 ft | 403 kts | 265° |
| 2026-05-06 18:16 | 34.96224 | 138.50368 | 30083 ft | 404 kts | 265° |
| 2026-05-06 18:17 | 34.95845 | 138.43535 | 30072 ft | 405 kts | 265° |
| 2026-05-06 18:17 | 34.95461 | 138.36682 | 30080 ft | 406 kts | 265° |
| 2026-05-06 18:18 | 34.95072 | 138.29803 | 30084 ft | 407 kts | 265° |
| 2026-05-06 18:18 | 34.94680 | 138.22938 | 30077 ft | 411 kts | 265° |
| 2026-05-06 18:19 | 34.94277 | 138.15964 | 30077 ft | 414 kts | 265° |
| 2026-05-06 18:19 | 34.93865 | 138.08927 | 30086 ft | 418 kts | 265° |
| 2026-05-06 18:20 | 34.93447 | 138.01840 | 30076 ft | 420 kts | 265° |
| 2026-05-06 18:20 | 34.93024 | 137.94731 | 30079 ft | 421 kts | 265° |
| 2026-05-06 18:21 | 34.92598 | 137.87626 | 30090 ft | 420 kts | 265° |
| 2026-05-06 18:21 | 34.92167 | 137.80529 | 30091 ft | 420 kts | 265° |
| 2026-05-06 18:22 | 34.91732 | 137.73419 | 30093 ft | 421 kts | 265° |
| 2026-05-06 18:22 | 34.90859 | 137.66359 | 30082 ft | 423 kts | 257° |
| 2026-05-06 18:23 | 34.89012 | 137.59548 | 30088 ft | 425 kts | 250° |
| 2026-05-06 18:23 | 34.86940 | 137.52790 | 30085 ft | 427 kts | 251° |
| 2026-05-06 18:24 | 34.84896 | 137.45976 | 30086 ft | 429 kts | 251° |
| 2026-05-06 18:24 | 34.82925 | 137.39103 | 30079 ft | 431 kts | 252° |
| 2026-05-06 18:25 | 34.80963 | 137.32196 | 30091 ft | 433 kts | 252° |
| 2026-05-06 18:25 | 34.78982 | 137.25275 | 30082 ft | 434 kts | 251° |
| 2026-05-06 18:26 | 34.77059 | 137.18595 | 30082 ft | 436 kts | 251° |
| 2026-05-06 18:26 | 34.75049 | 137.11629 | 30083 ft | 437 kts | 251° |
| 2026-05-06 18:27 | 34.73029 | 137.04642 | 30084 ft | 439 kts | 251° |
| 2026-05-06 18:27 | 34.70661 | 136.97794 | 30095 ft | 447 kts | 239° |
| 2026-05-06 18:28 | 34.66535 | 136.91954 | 30083 ft | 467 kts | 221° |
| 2026-05-06 18:28 | 34.61285 | 136.87138 | 30093 ft | 479 kts | 218° |
| 2026-05-06 18:29 | 34.55872 | 136.82288 | 30088 ft | 487 kts | 219° |
| 2026-05-06 18:29 | 34.50438 | 136.77310 | 30087 ft | 492 kts | 219° |
| 2026-05-06 18:30 | 34.44978 | 136.72264 | 30086 ft | 495 kts | 219° |
| 2026-05-06 18:30 | 34.39488 | 136.67199 | 30082 ft | 497 kts | 219° |
| 2026-05-06 18:31 | 34.33981 | 136.62130 | 30065 ft | 498 kts | 219° |
| 2026-05-06 18:31 | 34.28460 | 136.57051 | 30076 ft | 498 kts | 220° |
| 2026-05-06 18:32 | 34.22990 | 136.51921 | 30066 ft | 497 kts | 220° |
| 2026-05-06 18:32 | 34.17580 | 136.46832 | 30070 ft | 495 kts | 220° |
| 2026-05-06 18:33 | 34.12150 | 136.41745 | 30069 ft | 494 kts | 220° |
| 2026-05-06 18:33 | 34.06724 | 136.36686 | 30067 ft | 492 kts | 220° |
| 2026-05-06 18:34 | 34.01320 | 136.31662 | 30061 ft | 489 kts | 220° |
| 2026-05-06 18:34 | 33.95940 | 136.26657 | 30062 ft | 488 kts | 220° |
| 2026-05-06 18:35 | 33.90577 | 136.21670 | 30058 ft | 486 kts | 220° |
| 2026-05-06 18:35 | 33.85233 | 136.16707 | 30059 ft | 485 kts | 220° |
| 2026-05-06 18:36 | 33.79895 | 136.11771 | 30058 ft | 483 kts | 220° |
| 2026-05-06 18:36 | 33.74571 | 136.06865 | 30058 ft | 481 kts | 220° |
| 2026-05-06 18:37 | 33.70166 | 136.02803 | 30059 ft | 480 kts | 220° |
| 2026-05-06 18:37 | 33.63992 | 135.97112 | 30053 ft | 478 kts | 220° |
| 2026-05-06 18:38 | 33.61344 | 135.94672 | 29522 ft | 486 kts | 220° |
| 2026-05-06 18:38 | 33.58644 | 135.92185 | 29117 ft | 492 kts | 220° |
| 2026-05-06 18:38 | 33.55948 | 135.89705 | 28576 ft | 486 kts | 220° |
| 2026-05-06 18:38 | 33.53284 | 135.87257 | 27515 ft | 479 kts | 220° |
| 2026-05-06 18:39 | 33.50652 | 135.84840 | 26488 ft | 473 kts | 220° |
| 2026-05-06 18:39 | 33.48308 | 135.82249 | 25543 ft | 461 kts | 232° |
| 2026-05-06 18:39 | 33.46645 | 135.78959 | 24763 ft | 453 kts | 246° |
| 2026-05-06 18:40 | 33.45028 | 135.71843 | 23421 ft | 442 kts | 266° |
| 2026-05-06 18:40 | 33.45146 | 135.68269 | 23268 ft | 420 kts | 272° |
| 2026-05-06 18:40 | 33.45350 | 135.64854 | 23152 ft | 403 kts | 272° |
| 2026-05-06 18:40 | 33.45532 | 135.61572 | 22997 ft | 389 kts | 272° |
| 2026-05-06 18:41 | 33.45692 | 135.58383 | 22735 ft | 379 kts | 272° |
| 2026-05-06 18:41 | 33.45836 | 135.55259 | 22360 ft | 373 kts | 272° |
| 2026-05-06 18:41 | 33.45971 | 135.52185 | 21937 ft | 368 kts | 272° |
| 2026-05-06 18:41 | 33.46102 | 135.49132 | 21479 ft | 365 kts | 272° |
| 2026-05-06 18:42 | 33.46230 | 135.46107 | 21028 ft | 363 kts | 272° |
| 2026-05-06 18:42 | 33.46357 | 135.43101 | 20583 ft | 360 kts | 272° |
| 2026-05-06 18:42 | 33.46483 | 135.40118 | 20139 ft | 358 kts | 272° |
| 2026-05-06 18:42 | 33.46607 | 135.37145 | 19689 ft | 355 kts | 272° |
| 2026-05-06 18:43 | 33.47055 | 135.34274 | 19234 ft | 353 kts | 289° |
| 2026-05-06 18:43 | 33.48198 | 135.31671 | 18805 ft | 354 kts | 303° |
| 2026-05-06 18:43 | 33.49873 | 135.29522 | 18347 ft | 354 kts | 317° |
| 2026-05-06 18:43 | 33.51766 | 135.27645 | 17856 ft | 353 kts | 318° |
| 2026-05-06 18:44 | 33.53647 | 135.25762 | 17381 ft | 351 kts | 317° |
| 2026-05-06 18:44 | 33.55502 | 135.23875 | 16923 ft | 349 kts | 317° |
| 2026-05-06 18:44 | 33.57338 | 135.21983 | 16477 ft | 347 kts | 317° |
| 2026-05-06 18:44 | 33.59161 | 135.20093 | 16042 ft | 345 kts | 317° |
| 2026-05-06 18:45 | 33.60972 | 135.18215 | 15603 ft | 343 kts | 317° |
| 2026-05-06 18:45 | 33.62775 | 135.16344 | 15176 ft | 342 kts | 317° |
| 2026-05-06 18:45 | 33.64569 | 135.14483 | 14741 ft | 341 kts | 317° |
| 2026-05-06 18:45 | 33.65754 | 135.13253 | 14459 ft | 340 kts | 317° |
| 2026-05-06 18:46 | 33.68187 | 135.10888 | 13880 ft | 340 kts | 320° |
| 2026-05-06 18:46 | 33.69450 | 135.09717 | 13549 ft | 339 kts | 320° |
| 2026-05-06 18:46 | 33.71919 | 135.07441 | 12946 ft | 337 kts | 320° |
| 2026-05-06 18:46 | 33.73766 | 135.05728 | 12512 ft | 335 kts | 319° |
| 2026-05-06 18:47 | 33.75596 | 135.04021 | 12075 ft | 333 kts | 319° |
| 2026-05-06 18:47 | 33.77415 | 135.02318 | 11662 ft | 330 kts | 319° |
| 2026-05-06 18:47 | 33.78639 | 135.01168 | 11353 ft | 330 kts | 319° |
| 2026-05-06 18:47 | 33.80447 | 134.99468 | 10902 ft | 329 kts | 319° |
| 2026-05-06 18:48 | 33.82244 | 134.97778 | 10524 ft | 326 kts | 319° |
| 2026-05-06 18:48 | 33.84004 | 134.96123 | 10383 ft | 315 kts | 319° |
| 2026-05-06 18:48 | 33.85706 | 134.94521 | 10224 ft | 306 kts | 319° |
| 2026-05-06 18:48 | 33.87475 | 134.93228 | 10075 ft | 296 kts | 338° |
| 2026-05-06 18:49 | 33.89469 | 134.92824 | 9940 ft | 290 kts | 356° |
| 2026-05-06 18:49 | 33.91486 | 134.92875 | 9623 ft | 288 kts | 359° |
| 2026-05-06 18:49 | 33.93484 | 134.92970 | 9295 ft | 287 kts | 360° |
| 2026-05-06 18:49 | 33.95469 | 134.93067 | 8986 ft | 285 kts | 360° |
| 2026-05-06 18:50 | 33.97442 | 134.93158 | 8675 ft | 283 kts | 360° |
| 2026-05-06 18:50 | 33.99405 | 134.93244 | 8367 ft | 281 kts | 360° |
| 2026-05-06 18:50 | 34.01353 | 134.93325 | 8055 ft | 280 kts | 359° |
| 2026-05-06 18:50 | 34.03294 | 134.93402 | 7749 ft | 278 kts | 359° |
| 2026-05-06 18:51 | 34.05198 | 134.93475 | 7438 ft | 277 kts | 359° |
| 2026-05-06 18:51 | 34.07118 | 134.93547 | 7147 ft | 276 kts | 359° |
| 2026-05-06 18:51 | 34.09034 | 134.93619 | 6848 ft | 275 kts | 359° |
| 2026-05-06 18:51 | 34.10943 | 134.93690 | 6539 ft | 274 kts | 360° |
| 2026-05-06 18:52 | 34.12850 | 134.93761 | 6223 ft | 273 kts | 360° |
| 2026-05-06 18:52 | 34.14742 | 134.93830 | 5905 ft | 272 kts | 360° |
| 2026-05-06 18:52 | 34.16637 | 134.93900 | 5596 ft | 271 kts | 360° |
| 2026-05-06 18:52 | 34.18519 | 134.93970 | 5294 ft | 270 kts | 360° |
| 2026-05-06 18:53 | 34.20394 | 134.94039 | 4991 ft | 269 kts | 0° |
| 2026-05-06 18:53 | 34.22262 | 134.94108 | 4685 ft | 268 kts | 0° |
| 2026-05-06 18:53 | 34.24120 | 134.94254 | 4368 ft | 268 kts | 11° |
| 2026-05-06 18:53 | 34.25766 | 134.95277 | 4095 ft | 270 kts | 44° |
| 2026-05-06 18:54 | 34.26961 | 134.96983 | 3816 ft | 264 kts | 51° |
| 2026-05-06 18:54 | 34.28112 | 134.98708 | 3527 ft | 263 kts | 51° |
| 2026-05-06 18:54 | 34.29260 | 135.00414 | 3304 ft | 259 kts | 50° |
| 2026-05-06 18:54 | 34.30382 | 135.02081 | 3185 ft | 252 kts | 50° |
| 2026-05-06 18:55 | 34.31468 | 135.03693 | 3079 ft | 242 kts | 50° |
| 2026-05-06 18:55 | 34.32501 | 135.05224 | 2997 ft | 230 kts | 50° |
| 2026-05-06 18:55 | 34.33492 | 135.06694 | 2855 ft | 221 kts | 50° |
| 2026-05-06 18:55 | 34.34457 | 135.08128 | 2584 ft | 219 kts | 50° |
| 2026-05-06 18:56 | 34.35410 | 135.09542 | 2347 ft | 214 kts | 51° |
| 2026-05-06 18:56 | 34.36342 | 135.10926 | 2034 ft | 210 kts | 51° |
| 2026-05-06 18:56 | 34.37251 | 135.12277 | 1750 ft | 205 kts | 51° |
| 2026-05-06 18:56 | 34.38110 | 135.13552 | 1481 ft | 200 kts | 51° |
| 2026-05-06 18:57 | 34.38968 | 135.14828 | 1239 ft | 188 kts | 51° |
| 2026-05-06 18:57 | 34.39754 | 135.15996 | 1011 ft | 173 kts | 51° |
| 2026-05-06 18:57 | 34.40494 | 135.17096 | 753 ft | 165 kts | 51° |
| 2026-05-06 18:57 | 34.41194 | 135.18138 | 540 ft | 152 kts | 51° |
| 2026-05-06 18:58 | 34.41831 | 135.19085 | 316 ft | 142 kts | 51° |
| 2026-05-06 18:58 | 34.42449 | 135.20017 | 205 ft | 142 kts | 52° |
| 2026-05-06 18:58 | 34.43079 | 135.20948 | 42 ft | 143 kts | 51° |
| 2026-05-06 18:58 | 34.43648 | 135.21797 | 37 ft | 110 kts | 51° |
| 2026-05-06 18:59 | 34.44033 | 135.22372 | 35 ft | 64 kts | 51° |
| 2026-05-06 18:59 | 34.44277 | 135.22735 | 34 ft | 41 kts | 51° |
| 2026-05-06 18:59 | 34.44370 | 135.22949 | 34 ft | 23 kts | 75° |
| 2026-05-06 18:59 | 34.44392 | 135.23095 | 34 ft | 14 kts | 81° |
| 2026-05-06 19:00 | 34.44383 | 135.23170 | 34 ft | 8 kts | 130° |
| 2026-05-06 19:00 | 34.44336 | 135.23162 | 34 ft | 8 kts | 224° |
| 2026-05-06 19:00 | 34.44290 | 135.23102 | 34 ft | 12 kts | 227° |
| 2026-05-06 19:00 | 34.44233 | 135.23012 | 34 ft | 14 kts | 231° |
| 2026-05-06 19:01 | 34.44168 | 135.22917 | 34 ft | 16 kts | 231° |
| 2026-05-06 19:01 | 34.44095 | 135.22807 | 33 ft | 18 kts | 231° |
| 2026-05-06 19:01 | 34.44010 | 135.22682 | 34 ft | 20 kts | 231° |
| 2026-05-06 19:01 | 34.43929 | 135.22562 | 34 ft | 14 kts | 231° |
| 2026-05-06 19:02 | 34.43900 | 135.22518 | 34 ft | 4 kts | 231° |
| 2026-05-06 19:02 | 34.43867 | 135.22493 | 34 ft | 6 kts | 188° |
| 2026-05-06 19:02 | 34.43828 | 135.22514 | 34 ft | 7 kts | 144° |
| 2026-05-06 19:02 | 34.43767 | 135.22571 | 34 ft | 15 kts | 141° |
| 2026-05-06 19:03 | 34.43684 | 135.22652 | 34 ft | 16 kts | 141° |
| 2026-05-06 19:03 | 34.43594 | 135.22740 | 34 ft | 17 kts | 141° |
| 2026-05-06 19:03 | 34.43499 | 135.22833 | 33 ft | 18 kts | 141° |
| 2026-05-06 19:03 | 34.43398 | 135.22932 | 33 ft | 19 kts | 141° |
| 2026-05-06 19:04 | 34.43297 | 135.23031 | 33 ft | 19 kts | 141° |
| 2026-05-06 19:04 | 34.43193 | 135.23132 | 31 ft | 21 kts | 141° |
| 2026-05-06 19:04 | 34.43073 | 135.23250 | 27 ft | 23 kts | 141° |
| 2026-05-06 19:04 | 34.42986 | 135.23337 | 28 ft | 14 kts | 133° |
| 2026-05-06 19:05 | 34.42992 | 135.23421 | 26 ft | 11 kts | 52° |
| 2026-05-06 19:05 | 34.43034 | 135.23500 | 29 ft | 11 kts | 84° |
| 2026-05-06 19:05 | 34.42979 | 135.23567 | 29 ft | 12 kts | 144° |
| 2026-05-06 19:05 | 34.42906 | 135.23637 | 28 ft | 14 kts | 141° |
| 2026-05-06 19:06 | 34.42828 | 135.23713 | 27 ft | 15 kts | 141° |
| 2026-05-06 19:06 | 34.42785 | 135.23765 | 28 ft | 8 kts | 117° |
| 2026-05-06 19:06 | 34.42796 | 135.23835 | 27 ft | 10 kts | 53° |
| 2026-05-06 19:06 | 34.42841 | 135.23904 | 26 ft | 11 kts | 51° |
| 2026-05-06 19:07 | 34.42892 | 135.23981 | 25 ft | 12 kts | 51° |
| 2026-05-06 19:07 | 34.42950 | 135.24066 | 27 ft | 14 kts | 51° |
| 2026-05-06 19:07 | 34.43012 | 135.24160 | 26 ft | 15 kts | 51° |
| 2026-05-06 19:07 | 34.43076 | 135.24255 | 24 ft | 11 kts | 51° |
| 2026-05-06 19:08 | 34.43117 | 135.24277 | 21 ft | 5 kts | 346° |
| 2026-05-06 19:08 | 34.43146 | 135.24257 | 26 ft | 2 kts | 327° |
| 2026-05-06 19:08 | 34.43158 | 135.24247 | 28 ft | 2 kts | 325° |
| 2026-05-06 19:08 | 34.43164 | 135.24241 | 28 ft | 1 kts | 322° |
| 2026-05-06 19:09 | 34.43170 | 135.24236 | 28 ft | 1 kts | 322° |